createdAt,value
2023-06-26T00:00:41.030Z,13.35
2023-06-26T00:03:08.752Z,16.33
2023-06-26T00:05:36.137Z,15.65
2023-06-26T00:08:04.150Z,13.50
2023-06-26T00:10:31.185Z,15.07
2023-06-26T00:12:57.954Z,13.55
2023-06-26T00:15:25.778Z,13.85
2023-06-26T00:17:52.867Z,14.20
2023-06-26T00:20:20.105Z,14.63
2023-06-26T00:22:47.667Z,14.60
2023-06-26T00:25:14.983Z,15.57
2023-06-26T00:27:41.950Z,14.07
2023-06-26T00:30:10.095Z,13.45
2023-06-26T00:32:39.619Z,13.52
2023-06-26T00:35:08.071Z,14.35
2023-06-26T00:37:36.158Z,14.70
2023-06-26T00:40:04.995Z,13.65
2023-06-26T00:42:34.589Z,13.55
2023-06-26T00:45:01.475Z,15.75
2023-06-26T00:47:29.021Z,15.13
2023-06-26T00:49:56.593Z,12.93
2023-06-26T00:52:25.451Z,15.02
2023-06-26T00:54:52.827Z,15.43
2023-06-26T00:57:20.763Z,14.25
2023-06-26T00:59:47.676Z,14.00
2023-06-26T01:02:21.293Z,15.00
2023-06-26T01:04:52.196Z,14.00
2023-06-26T01:07:22.117Z,14.30
2023-06-26T01:09:50.036Z,13.45
2023-06-26T01:12:18.014Z,14.15
2023-06-26T01:14:44.767Z,14.00
2023-06-26T01:17:16.779Z,12.73
2023-06-26T01:19:44.461Z,13.13
2023-06-26T01:22:47.041Z,14.82
2023-06-26T01:25:22.646Z,14.43
2023-06-26T01:27:54.551Z,15.65
2023-06-26T01:30:22.455Z,16.40
2023-06-26T01:32:51.348Z,16.20
2023-06-26T01:35:18.611Z,14.35
2023-06-26T01:37:45.807Z,16.05
2023-06-26T01:40:12.765Z,14.65
2023-06-26T01:42:39.618Z,15.95
2023-06-26T01:45:25.928Z,15.40
2023-06-26T01:47:55.081Z,15.18
2023-06-26T01:50:25.395Z,16.63
2023-06-26T01:53:13.716Z,15.95
2023-06-26T01:55:49.065Z,14.55
2023-06-26T01:58:18.283Z,13.45
2023-06-26T02:00:45.145Z,11.35
2023-06-26T02:03:12.786Z,10.80
2023-06-26T02:05:39.896Z,10.73
2023-06-26T02:08:07.968Z,9.93
2023-06-26T02:10:35.557Z,8.80
2023-06-26T02:13:02.761Z,9.10
2023-06-26T02:15:29.481Z,9.18
2023-06-26T02:17:56.700Z,9.32
2023-06-26T02:20:24.218Z,8.82
2023-06-26T02:22:50.987Z,8.15
2023-06-26T02:25:20.668Z,8.77
2023-06-26T02:27:47.810Z,8.10
2023-06-26T02:30:15.633Z,8.05
2023-06-26T02:32:42.642Z,10.35
2023-06-26T02:35:10.158Z,7.90
2023-06-26T02:37:38.324Z,8.75
2023-06-26T02:40:06.288Z,8.38
2023-06-26T02:42:33.641Z,8.05
2023-06-26T02:45:00.545Z,8.75
2023-06-26T02:47:27.479Z,8.27
2023-06-26T02:49:54.575Z,8.82
2023-06-26T02:52:21.991Z,7.90
2023-06-26T02:54:49.029Z,8.07
2023-06-26T02:57:16.870Z,7.68
2023-06-26T02:59:44.021Z,10.15
2023-06-26T03:02:11.680Z,7.10
2023-06-26T03:04:38.784Z,8.23
2023-06-26T03:07:07.200Z,7.85
2023-06-26T03:09:34.676Z,8.20
2023-06-26T03:12:02.193Z,8.15
2023-06-26T03:14:30.087Z,7.47
2023-06-26T03:17:02.204Z,8.85
2023-06-26T03:19:28.985Z,7.78
2023-06-26T03:21:56.989Z,7.82
2023-06-26T03:24:23.806Z,8.27
2023-06-26T03:26:51.190Z,8.25
2023-06-26T03:29:18.955Z,7.75
2023-06-26T03:31:47.149Z,8.30
2023-06-26T03:34:14.235Z,8.50
2023-06-26T03:36:44.065Z,8.63
2023-06-26T03:39:10.803Z,8.75
2023-06-26T03:41:38.537Z,7.50
2023-06-26T03:44:05.304Z,9.40
2023-06-26T03:46:32.716Z,8.23
2023-06-26T03:49:00.634Z,10.65
2023-06-26T03:51:27.507Z,9.07
2023-06-26T03:53:54.514Z,8.88
2023-06-26T03:56:21.757Z,8.80
2023-06-26T03:58:54.597Z,8.95
2023-06-26T04:01:23.190Z,9.10
2023-06-26T04:03:52.551Z,7.53
2023-06-26T04:06:21.159Z,8.90
2023-06-26T04:08:48.273Z,8.68
2023-06-26T04:11:15.048Z,10.27
2023-06-26T04:13:42.088Z,9.75
2023-06-26T04:16:09.053Z,10.25
2023-06-26T04:18:36.022Z,10.75
2023-06-26T04:21:26.192Z,10.68
2023-06-26T04:23:53.423Z,9.75
2023-06-26T04:26:20.572Z,9.63
2023-06-26T04:28:47.430Z,9.38
2023-06-26T04:31:14.579Z,10.60
2023-06-26T04:33:43.883Z,10.48
2023-06-26T04:36:10.921Z,8.70
2023-06-26T04:38:37.942Z,8.77
2023-06-26T04:41:05.649Z,8.55
2023-06-26T04:43:32.527Z,8.88
2023-06-26T04:46:01.674Z,8.18
2023-06-26T04:48:29.548Z,9.02
2023-06-26T04:50:57.785Z,8.75
2023-06-26T04:53:24.918Z,9.02
2023-06-26T04:55:54.943Z,8.70
2023-06-26T04:58:23.332Z,8.90
2023-06-26T05:00:50.258Z,8.93
2023-06-26T05:03:19.125Z,9.10
2023-06-26T05:05:47.632Z,8.43
2023-06-26T05:08:21.594Z,8.95
2023-06-26T05:10:54.176Z,8.68
2023-06-26T05:13:25.530Z,9.07
2023-06-26T05:15:59.046Z,8.70
2023-06-26T05:18:25.982Z,8.43
2023-06-26T05:20:53.704Z,8.50
2023-06-26T05:23:21.020Z,8.63
2023-06-26T05:25:48.533Z,8.52
2023-06-26T05:28:17.010Z,10.10
2023-06-26T05:30:44.634Z,8.35
2023-06-26T05:33:16.031Z,9.10
2023-06-26T05:35:44.646Z,8.85
2023-06-26T05:38:12.098Z,7.80
2023-06-26T05:40:43.106Z,8.30
2023-06-26T05:43:10.702Z,8.68
2023-06-26T05:45:37.684Z,8.70
2023-06-26T05:48:07.787Z,7.88
2023-06-26T05:50:35.638Z,8.20
2023-06-26T05:53:04.326Z,7.93
2023-06-26T05:55:31.441Z,9.15
2023-06-26T05:58:01.691Z,8.80
2023-06-26T06:00:29.273Z,9.70
2023-06-26T06:02:56.864Z,10.90
2023-06-26T06:05:23.776Z,8.13
2023-06-26T06:07:51.358Z,7.75
2023-06-26T06:10:18.138Z,7.63
2023-06-26T06:12:44.839Z,7.45
2023-06-26T06:15:12.189Z,7.90
2023-06-26T06:17:39.841Z,6.97
2023-06-26T06:20:12.118Z,7.28
2023-06-26T06:22:38.922Z,6.18
2023-06-26T06:25:06.787Z,6.97
2023-06-26T06:27:36.240Z,6.72
2023-06-26T06:30:04.733Z,5.05
2023-06-26T06:32:33.309Z,7.30
2023-06-26T06:35:00.343Z,6.13
2023-06-26T06:37:28.199Z,6.50
2023-06-26T06:39:55.265Z,5.95
2023-06-26T06:42:22.348Z,5.88
2023-06-26T06:44:49.766Z,6.55
2023-06-26T06:47:16.608Z,7.25
2023-06-26T06:49:43.453Z,5.63
2023-06-26T06:52:10.982Z,5.65
2023-06-26T06:55:00.119Z,6.20
2023-06-26T06:57:27.256Z,4.97
2023-06-26T06:59:53.992Z,4.90
2023-06-26T07:02:20.888Z,6.13
2023-06-26T07:04:47.978Z,4.45
2023-06-26T07:07:15.477Z,5.55
2023-06-26T07:09:42.656Z,4.60
2023-06-26T07:12:10.924Z,5.05
2023-06-26T07:14:37.785Z,4.88
2023-06-26T07:17:05.594Z,4.82
2023-06-26T07:19:33.538Z,4.55
2023-06-26T07:22:00.680Z,4.47
2023-06-26T07:24:29.805Z,5.15
2023-06-26T07:26:56.890Z,5.32
2023-06-26T07:29:24.596Z,5.28
2023-06-26T07:31:51.361Z,4.57
2023-06-26T07:34:18.382Z,4.50
2023-06-26T07:36:47.411Z,3.80
2023-06-26T07:39:17.984Z,3.72
2023-06-26T07:41:49.521Z,4.75
2023-06-26T07:44:16.456Z,4.22
2023-06-26T07:46:43.212Z,3.92
2023-06-26T07:49:10.373Z,4.60
2023-06-26T07:51:37.873Z,4.97
2023-06-26T07:54:05.797Z,4.32
2023-06-26T07:56:38.521Z,3.75
2023-06-26T07:59:08.634Z,4.00
2023-06-26T08:01:35.964Z,4.60
2023-06-26T08:04:03.307Z,4.13
2023-06-26T08:06:30.456Z,4.43
2023-06-26T08:09:00.047Z,5.10
2023-06-26T08:11:27.049Z,3.78
2023-06-26T08:13:55.774Z,4.53
2023-06-26T08:16:22.721Z,5.35
2023-06-26T08:18:49.508Z,4.38
2023-06-26T08:21:16.474Z,4.30
2023-06-26T08:23:44.090Z,5.05
2023-06-26T08:26:11.096Z,3.67
2023-06-26T08:28:38.060Z,2.92
2023-06-26T08:31:05.364Z,3.70
2023-06-26T08:33:32.917Z,3.45
2023-06-26T08:35:59.798Z,2.70
2023-06-26T08:38:27.105Z,3.33
2023-06-26T08:40:54.709Z,2.85
2023-06-26T08:43:23.141Z,2.88
2023-06-26T08:45:52.881Z,2.75
2023-06-26T08:48:20.085Z,2.38
2023-06-26T08:50:49.996Z,2.47
2023-06-26T08:53:44.585Z,2.42
2023-06-26T08:56:12.529Z,2.17
2023-06-26T08:58:41.637Z,2.40
2023-06-26T09:01:10.212Z,2.40
2023-06-26T09:03:37.734Z,2.90
2023-06-26T09:06:04.711Z,1.83
2023-06-26T09:08:31.750Z,2.25
2023-06-26T09:10:58.792Z,2.22
2023-06-26T09:13:29.830Z,2.05
2023-06-26T09:16:00.183Z,2.15
2023-06-26T09:18:30.718Z,1.83
2023-06-26T09:20:59.074Z,1.98
2023-06-26T09:23:28.086Z,1.70
2023-06-26T09:25:55.416Z,1.70
2023-06-26T09:28:22.338Z,1.70
2023-06-26T09:30:49.165Z,1.50
2023-06-26T09:33:19.714Z,1.10
2023-06-26T09:35:47.496Z,1.30
2023-06-26T09:38:17.165Z,1.48
2023-06-26T09:40:44.341Z,1.33
2023-06-26T09:43:14.625Z,1.58
2023-06-26T09:45:42.757Z,1.60
2023-06-26T09:48:09.960Z,1.75
2023-06-26T09:50:38.291Z,1.90
2023-06-26T09:53:14.773Z,1.67
2023-06-26T09:55:45.202Z,1.75
2023-06-26T09:58:16.474Z,2.03
2023-06-26T10:00:46.885Z,1.95
2023-06-26T10:03:14.580Z,1.60
2023-06-26T10:05:45.675Z,1.73
2023-06-26T10:08:15.522Z,1.60
2023-06-26T10:10:42.659Z,1.20
2023-06-26T10:13:20.469Z,1.80
2023-06-26T10:15:47.798Z,1.73
2023-06-26T10:18:17.007Z,1.98
2023-06-26T10:20:44.377Z,2.05
2023-06-26T10:23:12.613Z,2.03
2023-06-26T10:25:44.013Z,2.30
2023-06-26T10:28:12.859Z,1.65
2023-06-26T10:30:41.122Z,2.33
2023-06-26T10:33:09.396Z,2.13
2023-06-26T10:35:43.715Z,1.80
2023-06-26T10:38:11.266Z,2.10
2023-06-26T10:40:46.577Z,2.05
2023-06-26T10:43:19.732Z,2.00
2023-06-26T10:45:55.950Z,1.80
2023-06-26T10:48:24.311Z,2.28
2023-06-26T10:50:51.956Z,1.98
2023-06-26T10:53:28.332Z,1.60
2023-06-26T10:56:02.138Z,2.53
2023-06-26T10:58:44.327Z,2.40
2023-06-26T11:01:27.614Z,2.28
2023-06-26T11:04:08.112Z,1.92
2023-06-26T11:06:37.098Z,2.08
2023-06-26T11:09:09.289Z,1.52
2023-06-26T11:12:00.442Z,3.08
2023-06-26T11:14:28.777Z,2.08
2023-06-26T11:16:59.239Z,2.25
2023-06-26T11:19:39.229Z,1.70
2023-06-26T11:22:09.168Z,2.10
2023-06-26T11:24:40.126Z,2.03
2023-06-26T11:27:08.001Z,2.13
2023-06-26T11:29:35.977Z,2.10
2023-06-26T11:32:07.345Z,2.20
2023-06-26T11:34:40.955Z,2.30
2023-06-26T11:37:09.407Z,2.42
2023-06-26T11:39:38.618Z,1.90
2023-06-26T11:42:06.497Z,2.03
2023-06-26T11:44:34.332Z,2.22
2023-06-26T11:47:01.829Z,1.98
2023-06-26T11:49:30.139Z,2.33
2023-06-26T11:51:56.970Z,1.88
2023-06-26T11:54:31.204Z,2.25
2023-06-26T11:57:00.121Z,1.67
2023-06-26T11:59:37.075Z,2.30
2023-06-26T12:02:11.617Z,2.15
2023-06-26T12:04:40.647Z,2.00
2023-06-26T12:07:11.274Z,2.28
2023-06-26T12:09:43.330Z,1.70
2023-06-26T12:12:12.277Z,1.98
2023-06-26T12:14:39.543Z,2.17
2023-06-26T12:17:09.958Z,2.03
2023-06-26T12:19:39.388Z,1.90
2023-06-26T12:22:10.346Z,2.00
2023-06-26T12:24:39.126Z,1.67
2023-06-26T12:27:11.375Z,2.55
2023-06-26T12:29:39.864Z,1.80
2023-06-26T12:32:11.328Z,2.33
2023-06-26T12:34:40.034Z,2.22
2023-06-26T12:37:09.896Z,2.33
2023-06-26T12:39:54.331Z,2.67
2023-06-26T12:42:30.376Z,2.88
2023-06-26T12:44:58.983Z,3.10
2023-06-26T12:47:30.572Z,2.72
2023-06-26T12:49:59.018Z,2.90
2023-06-26T12:52:26.120Z,2.42
2023-06-26T12:54:56.516Z,2.97
2023-06-26T12:57:24.868Z,2.95
2023-06-26T12:59:51.872Z,2.60
2023-06-26T13:02:19.037Z,2.80
2023-06-26T13:04:46.598Z,2.53
2023-06-26T13:07:14.114Z,2.17
2023-06-26T13:09:42.536Z,2.67
2023-06-26T13:12:10.057Z,2.40
2023-06-26T13:14:37.583Z,2.40
2023-06-26T13:17:04.960Z,2.30
2023-06-26T13:19:35.305Z,3.03
2023-06-26T13:22:03.277Z,3.47
2023-06-26T13:24:31.184Z,2.75
2023-06-26T13:26:58.514Z,2.83
2023-06-26T13:29:35.819Z,2.53
2023-06-26T13:32:02.771Z,3.03
2023-06-26T13:34:31.194Z,3.08
2023-06-26T13:36:58.451Z,2.60
2023-06-26T13:39:26.587Z,2.60
2023-06-26T13:41:54.185Z,2.65
2023-06-26T13:44:41.099Z,3.08
2023-06-26T13:47:16.665Z,2.90
2023-06-26T13:49:45.758Z,2.55
2023-06-26T13:52:13.978Z,2.53
2023-06-26T13:54:45.471Z,2.42
2023-06-26T13:57:35.086Z,2.50
2023-06-26T14:00:06.916Z,2.30
2023-06-26T14:02:37.017Z,2.40
2023-06-26T14:05:05.668Z,2.42
2023-06-26T14:07:34.814Z,3.03
2023-06-26T14:10:02.737Z,3.50
2023-06-26T14:12:30.379Z,3.20
2023-06-26T14:14:57.560Z,2.33
2023-06-26T14:17:31.283Z,2.40
2023-06-26T14:19:59.083Z,2.65
2023-06-26T14:22:26.340Z,2.05
2023-06-26T14:24:53.541Z,2.67
2023-06-26T14:27:21.955Z,2.95
2023-06-26T14:29:50.745Z,2.58
2023-06-26T14:32:17.929Z,2.85
2023-06-26T14:34:44.961Z,2.35
2023-06-26T14:37:12.609Z,2.72
2023-06-26T14:39:41.269Z,2.90
2023-06-26T14:42:11.357Z,3.00
2023-06-26T14:44:39.417Z,2.97
2023-06-26T14:47:07.491Z,3.33
2023-06-26T14:49:36.825Z,2.63
2023-06-26T14:52:03.921Z,2.60
2023-06-26T14:54:32.682Z,2.10
2023-06-26T14:57:02.227Z,3.20
2023-06-26T14:59:29.901Z,2.97
2023-06-26T15:01:57.892Z,2.63
2023-06-26T15:04:26.761Z,2.45
2023-06-26T15:06:57.919Z,3.22
2023-06-26T15:09:30.199Z,2.22
2023-06-26T15:12:01.415Z,3.30
2023-06-26T15:14:29.063Z,3.35
2023-06-26T15:16:56.068Z,4.00
2023-06-26T15:19:22.923Z,3.55
2023-06-26T15:21:50.977Z,2.75
2023-06-26T15:24:17.800Z,2.42
2023-06-26T15:26:46.853Z,2.90
2023-06-26T15:29:16.342Z,2.20
2023-06-26T15:31:43.928Z,2.67
2023-06-26T15:34:14.364Z,2.28
2023-06-26T15:36:45.611Z,2.35
2023-06-26T15:39:14.503Z,2.70
2023-06-26T15:42:08.091Z,2.30
2023-06-26T15:44:35.446Z,2.63
2023-06-26T15:47:03.109Z,2.22
2023-06-26T15:49:32.354Z,2.30
2023-06-26T15:51:59.370Z,2.42
2023-06-26T15:54:26.891Z,2.13
2023-06-26T15:56:56.618Z,2.55
2023-06-26T15:59:23.599Z,2.47
2023-06-26T16:01:53.782Z,2.92
2023-06-26T16:04:22.896Z,2.90
2023-06-26T16:06:50.103Z,3.08
2023-06-26T16:09:17.310Z,2.95
2023-06-26T16:11:44.203Z,2.72
2023-06-26T16:14:11.875Z,2.40
2023-06-26T16:16:40.233Z,2.55
2023-06-26T16:19:08.554Z,2.70
2023-06-26T16:21:36.055Z,2.25
2023-06-26T16:24:04.561Z,2.20
2023-06-26T16:26:31.700Z,2.53
2023-06-26T16:29:05.944Z,2.70
2023-06-26T16:31:33.129Z,2.63
2023-06-26T16:34:06.521Z,2.20
2023-06-26T16:36:39.224Z,2.65
2023-06-26T16:39:22.780Z,3.05
2023-06-26T16:41:57.848Z,2.80
2023-06-26T16:44:36.781Z,2.70
2023-06-26T16:47:05.898Z,2.78
2023-06-26T16:49:58.050Z,2.70
2023-06-26T16:52:39.081Z,2.30
2023-06-26T16:55:09.308Z,2.90
2023-06-26T16:57:39.574Z,2.55
2023-06-26T17:00:08.111Z,3.42
2023-06-26T17:02:37.074Z,3.08
2023-06-26T17:05:05.023Z,2.92
2023-06-26T17:07:32.317Z,2.72
2023-06-26T17:09:59.576Z,3.63
2023-06-26T17:12:27.907Z,2.83
2023-06-26T17:14:55.204Z,3.45
2023-06-26T17:17:23.520Z,3.58
2023-06-26T17:20:06.811Z,3.35
2023-06-26T17:22:35.485Z,3.10
2023-06-26T17:25:06.067Z,3.00
2023-06-26T17:27:33.270Z,2.88
2023-06-26T17:30:01.044Z,3.40
2023-06-26T17:32:28.065Z,3.05
2023-06-26T17:34:54.915Z,3.22
2023-06-26T17:37:26.911Z,2.58
2023-06-26T17:39:55.649Z,2.45
2023-06-26T17:42:23.226Z,3.00
2023-06-26T17:44:50.142Z,4.22
2023-06-26T17:47:17.844Z,2.95
2023-06-26T17:49:46.425Z,2.70
2023-06-26T17:52:13.363Z,5.85
2023-06-26T17:54:40.230Z,3.33
2023-06-26T17:57:08.669Z,3.90
2023-06-26T17:59:35.703Z,3.58
2023-06-26T18:02:08.838Z,3.58
2023-06-26T18:04:39.084Z,3.08
2023-06-26T18:07:07.135Z,2.88
2023-06-26T18:09:35.148Z,2.83
2023-06-26T18:12:03.673Z,3.13
2023-06-26T18:14:30.787Z,3.25
2023-06-26T18:17:00.573Z,2.17
2023-06-26T18:19:27.762Z,2.63
2023-06-26T18:21:54.660Z,2.80
2023-06-26T18:24:30.175Z,2.72
2023-06-26T18:26:57.875Z,3.08
2023-06-26T18:29:24.623Z,2.13
2023-06-26T18:31:54.349Z,2.70
2023-06-26T18:34:22.420Z,2.00
2023-06-26T18:36:50.261Z,2.63
2023-06-26T18:39:16.994Z,2.22
2023-06-26T18:41:43.791Z,1.80
2023-06-26T18:44:11.048Z,2.30
2023-06-26T18:46:39.159Z,1.70
2023-06-26T18:49:06.428Z,1.90
2023-06-26T18:51:34.428Z,2.22
2023-06-26T18:54:05.061Z,2.10
2023-06-26T18:56:33.821Z,2.45
2023-06-26T18:59:01.404Z,1.73
2023-06-26T19:01:28.446Z,2.00
2023-06-26T19:03:55.429Z,1.67
2023-06-26T19:06:22.332Z,2.35
2023-06-26T19:08:49.977Z,1.65
2023-06-26T19:11:18.458Z,2.15
2023-06-26T19:13:46.854Z,2.17
2023-06-26T19:16:14.495Z,1.92
2023-06-26T19:18:43.979Z,2.40
2023-06-26T19:21:10.890Z,2.35
2023-06-26T19:23:38.863Z,1.90
2023-06-26T19:26:08.175Z,1.70
2023-06-26T19:28:35.349Z,1.45
2023-06-26T19:31:02.267Z,1.98
2023-06-26T19:33:32.934Z,1.70
2023-06-26T19:36:00.311Z,1.73
2023-06-26T19:38:27.642Z,1.60
2023-06-26T19:40:54.717Z,2.60
2023-06-26T19:43:21.431Z,1.83
2023-06-26T19:45:48.268Z,2.05
2023-06-26T19:48:19.039Z,1.92
2023-06-26T19:50:45.874Z,2.00
2023-06-26T19:53:13.169Z,1.83
2023-06-26T19:55:41.279Z,2.17
2023-06-26T19:58:09.584Z,1.75
2023-06-26T20:00:41.188Z,2.30
2023-06-26T20:03:11.154Z,1.95
2023-06-26T20:05:39.361Z,1.88
2023-06-26T20:08:06.481Z,1.80
2023-06-26T20:10:36.085Z,2.42
2023-06-26T20:13:03.305Z,2.20
2023-06-26T20:15:31.418Z,2.20
2023-06-26T20:17:58.730Z,2.33
2023-06-26T20:20:26.248Z,2.72
2023-06-26T20:22:53.407Z,2.78
2023-06-26T20:25:20.548Z,2.20
2023-06-26T20:27:47.620Z,1.75
2023-06-26T20:30:15.092Z,2.50
2023-06-26T20:32:52.630Z,2.20
2023-06-26T20:35:19.544Z,2.35
2023-06-26T20:37:47.374Z,1.77
2023-06-26T20:40:17.713Z,1.90
2023-06-26T20:42:47.590Z,2.55
2023-06-26T20:45:18.069Z,2.60
2023-06-26T20:47:48.281Z,2.35
2023-06-26T20:50:19.793Z,2.40
2023-06-26T20:52:49.599Z,2.53
2023-06-26T20:55:16.924Z,2.15
2023-06-26T20:57:44.142Z,2.15
2023-06-26T21:00:12.173Z,2.25
2023-06-26T21:02:40.586Z,2.70
2023-06-26T21:05:08.643Z,2.65
2023-06-26T21:07:36.667Z,3.10
2023-06-26T21:10:05.423Z,2.70
2023-06-26T21:12:33.924Z,3.42
2023-06-26T21:15:01.396Z,2.80
2023-06-26T21:17:31.277Z,2.63
2023-06-26T21:19:59.699Z,2.47
2023-06-26T21:22:27.191Z,2.65
2023-06-26T21:24:54.564Z,3.08
2023-06-26T21:27:21.879Z,2.92
2023-06-26T21:29:48.797Z,3.67
2023-06-26T21:32:15.693Z,3.08
2023-06-26T21:34:43.303Z,2.90
2023-06-26T21:37:10.146Z,2.88
2023-06-26T21:39:37.422Z,2.30
2023-06-26T21:42:04.793Z,3.08
2023-06-26T21:44:32.142Z,2.40
2023-06-26T21:47:00.284Z,2.53
2023-06-26T21:49:27.468Z,3.42
2023-06-26T21:51:54.894Z,2.63
2023-06-26T21:54:22.685Z,3.10
2023-06-26T21:56:49.840Z,3.13
2023-06-26T21:59:17.253Z,2.75
2023-06-26T22:01:44.287Z,3.25
2023-06-26T22:04:11.350Z,2.83
2023-06-26T22:06:38.343Z,2.85
2023-06-26T22:09:07.020Z,2.88
2023-06-26T22:11:34.175Z,3.10
2023-06-26T22:14:02.133Z,3.22
2023-06-26T22:16:29.246Z,2.70
2023-06-26T22:18:56.386Z,3.08
2023-06-26T22:21:25.287Z,2.97
2023-06-26T22:23:52.465Z,3.20
2023-06-26T22:26:22.373Z,3.00
2023-06-26T22:28:51.021Z,3.45
2023-06-26T22:31:20.808Z,3.15
2023-06-26T22:33:47.990Z,3.55
2023-06-26T22:36:15.804Z,3.30
2023-06-26T22:38:43.016Z,3.22
2023-06-26T22:41:09.911Z,3.13
2023-06-26T22:43:40.824Z,3.30
2023-06-26T22:46:07.715Z,3.63
2023-06-26T22:48:35.401Z,3.63
2023-06-26T22:51:06.188Z,3.40
2023-06-26T22:53:33.475Z,3.30
2023-06-26T22:56:00.252Z,3.55
2023-06-26T22:58:28.294Z,3.08
2023-06-26T23:00:55.236Z,3.70
2023-06-26T23:03:23.561Z,3.45
2023-06-26T23:05:58.122Z,3.70
2023-06-26T23:08:26.387Z,3.50
2023-06-26T23:10:54.704Z,3.75
2023-06-26T23:13:21.841Z,4.03
2023-06-26T23:15:49.287Z,3.95
2023-06-26T23:18:15.978Z,4.85
2023-06-26T23:20:46.418Z,4.18
2023-06-26T23:23:14.060Z,3.55
2023-06-26T23:25:42.208Z,4.10
2023-06-26T23:28:09.237Z,3.63
2023-06-26T23:30:36.296Z,4.65
2023-06-26T23:33:07.344Z,4.32
2023-06-26T23:35:34.489Z,3.88
2023-06-26T23:38:02.755Z,3.50
2023-06-26T23:40:30.921Z,4.07
2023-06-26T23:43:03.298Z,3.90
2023-06-26T23:45:34.193Z,4.35
2023-06-26T23:48:04.340Z,4.25
2023-06-26T23:50:31.809Z,3.88
2023-06-26T23:53:01.895Z,3.60
2023-06-26T23:55:29.744Z,3.65
2023-06-26T23:57:57.430Z,4.97
